Santa Teresa — D5AH6 — position and weather

sailwx.info

Track history (hours):
 
Tides and Currents Weather Stations Pressure Air Temp Water Temp Dewpoint Dewpoint Depression Visibility Wind Speed Wind Dir Waves Ship Positions

Santa Teresa

Last reported at 2016-Nov-16 04:13 UTC. Time now 2016-Dec-08 08:02 UTC.
Position S 32°47' W 071°47'.
Warning: this ship's position is 22 days out of date.

Length 300 m; draft 10.8 m.

Type: Ship (hazmat cat A). MMSI: 636092317.

Date/timePositionNaut miles runAvg speedWind from/ knotsBaromVisibWave heightAir tempDewpointWater temp
2016-Nov-16 04:13S 32°47' W 071°47'1 1.3
2016-Nov-16 03:33S 32°48' W 071°47'1 1.3
2016-Nov-16 02:33S 32°49' W 071°48'1 1.3
2016-Nov-16 01:33S 32°50' W 071°49'11 2.8
2016-Nov-15 21:33S 32°57' W 071°39'5 2.7
2016-Nov-15 19:32S 33°02' W 071°38'0 0.0
2016-Nov-15 18:29S 33°02' W 071°38'0 0.0
2016-Nov-15 13:32S 33°02' W 071°38'0 0.0
2016-Nov-15 12:32S 33°02' W 071°38'0 0.0
2016-Nov-15 11:32S 33°02' W 071°38'0 0.0
2016-Nov-15 10:32S 33°02' W 071°38'0 0.0
2016-Nov-15 07:26S 33°02' W 071°38'0 0.0
2016-Nov-15 06:32S 33°02' W 071°38'0 0.0
2016-Nov-15 05:50S 33°02' W 071°38'0 0.0
2016-Nov-15 03:29S 33°02' W 071°38'0 0.0
2016-Nov-15 02:26S 33°02' W 071°38'0 0.0
2016-Nov-15 00:29S 33°02' W 071°38'0 0.0
2016-Nov-14 23:38S 33°02' W 071°38'0 0.0
2016-Nov-14 19:32S 33°02' W 071°38'0 0.0
2016-Nov-14 17:32S 33°02' W 071°38'0 0.0
2016-Nov-14 16:32S 33°02' W 071°38'0 0.0
2016-Nov-14 15:32S 33°02' W 071°38'0 0.0
2016-Nov-14 11:32S 33°02' W 071°38'3 1.0
2016-Nov-14 08:33S 32°59' W 071°38'  
Track history (hours):
 
Tides and Currents Weather Stations Pressure Air Temp Water Temp Dewpoint Dewpoint Depression Visibility Wind Speed Wind Dir Waves Ship Positions

Santa Teresa

Last reported at 2016-Nov-16 04:13 UTC. Time now 2016-Dec-08 08:02 UTC.
Position S 32°47' W 071°47'.
Warning: this ship's position is 22 days out of date.

Length 300 m; draft 10.8 m.

Type: Ship (hazmat cat A). MMSI: 636092317.

Date/timePositionNaut miles runAvg speedWind from/ knotsBaromVisibWave heightAir tempDewpointWater temp
2016-Nov-16 04:13S 32°47' W 071°47'1 1.3
2016-Nov-16 03:33S 32°48' W 071°47'1 1.3
2016-Nov-16 02:33S 32°49' W 071°48'1 1.3
2016-Nov-16 01:33S 32°50' W 071°49'11 2.8
2016-Nov-15 21:33S 32°57' W 071°39'5 2.7
2016-Nov-15 19:32S 33°02' W 071°38'0 0.0
2016-Nov-15 18:29S 33°02' W 071°38'0 0.0
2016-Nov-15 13:32S 33°02' W 071°38'0 0.0
2016-Nov-15 12:32S 33°02' W 071°38'0 0.0
2016-Nov-15 11:32S 33°02' W 071°38'0 0.0
2016-Nov-15 10:32S 33°02' W 071°38'0 0.0
2016-Nov-15 07:26S 33°02' W 071°38'0 0.0
2016-Nov-15 06:32S 33°02' W 071°38'0 0.0
2016-Nov-15 05:50S 33°02' W 071°38'0 0.0
2016-Nov-15 03:29S 33°02' W 071°38'0 0.0
2016-Nov-15 02:26S 33°02' W 071°38'0 0.0
2016-Nov-15 00:29S 33°02' W 071°38'0 0.0
2016-Nov-14 23:38S 33°02' W 071°38'0 0.0
2016-Nov-14 19:32S 33°02' W 071°38'0 0.0
2016-Nov-14 17:32S 33°02' W 071°38'0 0.0
2016-Nov-14 16:32S 33°02' W 071°38'0 0.0
2016-Nov-14 15:32S 33°02' W 071°38'0 0.0
2016-Nov-14 11:32S 33°02' W 071°38'3 1.0
2016-Nov-14 08:33S 32°59' W 071°38'  

Dump ship's entire track history